Time;durP1;ratioP1;P1;durP2;ratioP2;P2;SDS_P1;SDS_P2;PMS_P1;PMS_P2;Temp;Humidity;BMP_temperature;BMP_pressure;BME280_temperature;BME280_humidity;BME280_pressure;Samples;Min_cycle;Max_cycle;Signal;HPM_P1;HPM_P2
2021/06/28 00:01:15;;;;;;;12.63;9.93;;;;;;;;;;5064118;28;20040;-66
2021/06/28 00:03:42;;;;;;;13.80;10.27;;;;;;;;;;5065701;28;20294;-66
2021/06/28 00:06:07;;;;;;;13.48;9.68;;;;;;;;;;5061259;28;20036;-66
2021/06/28 00:08:32;;;;;;;13.55;9.95;;;;;;;;;;5061767;28;20038;-66
2021/06/28 00:10:57;;;;;;;14.18;10.00;;;;;;;;;;5063088;28;20075;-66
2021/06/28 00:13:23;;;;;;;14.23;10.53;;;;;;;;;;5065862;28;20036;-66
2021/06/28 00:15:48;;;;;;;17.33;10.70;;;;;;;;;;5062503;28;20354;-66
2021/06/28 00:18:14;;;;;;;12.88;9.60;;;;;;;;;;5063247;28;20052;-66
2021/06/28 00:20:40;;;;;;;13.10;10.25;;;;;;;;;;5061944;28;20016;-66
2021/06/28 00:23:05;;;;;;;14.15;11.15;;;;;;;;;;5068691;28;20553;-66
2021/06/28 00:25:30;;;;;;;13.75;10.85;;;;;;;;;;5064181;28;20027;-66
2021/06/28 00:27:56;;;;;;;17.60;11.02;;;;;;;;;;5059944;28;20025;-66
2021/06/28 00:30:21;;;;;;;14.88;10.80;;;;;;;;;;5063022;28;20062;-66
2021/06/28 00:32:47;;;;;;;14.05;10.43;;;;;;;;;;5061824;28;20421;-66
2021/06/28 00:35:13;;;;;;;16.02;11.45;;;;;;;;;;5061530;28;20073;-66
2021/06/28 00:37:38;;;;;;;13.68;11.07;;;;;;;;;;5061695;28;20029;-66
2021/06/28 00:40:05;;;;;;;14.48;10.35;;;;;;;;;;5062430;28;20020;-66
2021/06/28 00:42:30;;;;;;;15.13;10.55;;;;;;;;;;5064157;28;20044;-66
2021/06/28 00:44:55;;;;;;;18.23;11.27;;;;;;;;;;5064834;28;20111;-66
2021/06/28 00:47:20;;;;;;;14.77;11.10;;;;;;;;;;5062457;28;20285;-66
2021/06/28 00:49:46;;;;;;;14.80;10.55;;;;;;;;;;5061989;28;20278;-66
2021/06/28 00:52:11;;;;;;;14.55;11.27;;;;;;;;;;5064617;28;20111;-66
2021/06/28 00:54:37;;;;;;;15.00;10.75;;;;;;;;;;5062671;28;20016;-66
2021/06/28 00:57:03;;;;;;;15.10;12.00;;;;;;;;;;5060443;28;20025;-66
2021/06/28 00:59:28;;;;;;;13.45;11.27;;;;;;;;;;5058713;28;20025;-63
2021/06/28 01:01:54;;;;;;;19.63;11.77;;;;;;;;;;5060239;28;20078;-63
2021/06/28 01:04:19;;;;;;;16.23;11.32;;;;;;;;;;5060063;28;20027;-63
2021/06/28 01:06:44;;;;;;;14.18;10.77;;;;;;;;;;5058320;28;20522;-63
2021/06/28 01:09:09;;;;;;;14.48;11.10;;;;;;;;;;5063621;28;20427;-63
2021/06/28 01:11:35;;;;;;;12.88;10.38;;;;;;;;;;5060285;28;20055;-63
2021/06/28 01:14:00;;;;;;;16.73;11.30;;;;;;;;;;5060294;28;20056;-63
2021/06/28 01:16:25;;;;;;;17.38;12.02;;;;;;;;;;5061017;28;20063;-63
2021/06/28 01:18:50;;;;;;;15.55;11.40;;;;;;;;;;5063123;28;20016;-63
2021/06/28 01:21:16;;;;;;;21.30;11.48;;;;;;;;;;5063756;28;20040;-63
2021/06/28 01:23:41;;;;;;;14.88;11.70;;;;;;;;;;5061388;28;20028;-63
2021/06/28 01:26:09;;;;;;;18.05;12.35;;;;;;;;;;5060626;28;20403;-63
2021/06/28 01:28:34;;;;;;;18.10;11.43;;;;;;;;;;5060717;28;20107;-63
2021/06/28 01:31:00;;;;;;;20.63;11.23;;;;;;;;;;5064782;28;20108;-63
2021/06/28 01:33:26;;;;;;;17.35;11.07;;;;;;;;;;5066560;28;20495;-63
2021/06/28 01:35:52;;;;;;;19.08;11.95;;;;;;;;;;5059003;28;20020;-63
2021/06/28 01:38:17;;;;;;;17.38;12.40;;;;;;;;;;5060554;28;20017;-63
2021/06/28 01:40:43;;;;;;;20.08;12.20;;;;;;;;;;5062569;28;20070;-64
2021/06/28 01:43:08;;;;;;;16.58;11.45;;;;;;;;;;5062087;28;20016;-64
2021/06/28 01:45:33;;;;;;;15.68;12.20;;;;;;;;;;5060196;28;20516;-64
2021/06/28 01:47:59;;;;;;;18.50;12.70;;;;;;;;;;5060589;28;20548;-64
2021/06/28 01:50:26;;;;;;;15.02;11.00;;;;;;;;;;5060347;28;20017;-64
2021/06/28 01:52:51;;;;;;;14.38;11.50;;;;;;;;;;5060708;28;20043;-64
2021/06/28 01:55:17;;;;;;;20.00;11.68;;;;;;;;;;5060660;28;20025;-63
2021/06/28 01:57:47;;;;;;;15.88;11.82;;;;;;;;;;5059983;28;20020;-63
2021/06/28 02:00:13;;;;;;;19.23;12.68;;;;;;;;;;5061651;28;20468;-63
2021/06/28 02:02:39;;;;;;;17.67;12.15;;;;;;;;;;5045406;28;21231;-63
2021/06/28 02:05:05;;;;;;;16.00;11.87;;;;;;;;;;5058955;28;20111;-63
2021/06/28 02:07:30;;;;;;;14.38;11.60;;;;;;;;;;5060803;28;20414;-63
2021/06/28 02:09:56;;;;;;;15.48;12.23;;;;;;;;;;5062946;28;20480;-63
2021/06/28 02:12:22;;;;;;;21.93;12.43;;;;;;;;;;5065526;28;20077;-63
2021/06/28 02:14:47;;;;;;;16.88;12.13;;;;;;;;;;5060595;28;20786;-63
2021/06/28 02:17:12;;;;;;;16.58;12.45;;;;;;;;;;5061860;28;20028;-63
2021/06/28 02:19:37;;;;;;;21.67;12.10;;;;;;;;;;5058574;28;20021;-63
2021/06/28 02:22:03;;;;;;;17.13;12.38;;;;;;;;;;5061882;28;20329;-63
2021/06/28 02:24:28;;;;;;;17.60;11.73;;;;;;;;;;5060186;28;20024;-63
2021/06/28 02:26:53;;;;;;;17.07;12.33;;;;;;;;;;5065058;28;20017;-66
2021/06/28 02:29:18;;;;;;;20.50;12.13;;;;;;;;;;5062483;28;20270;-66
2021/06/28 02:31:43;;;;;;;15.82;11.95;;;;;;;;;;5065062;28;21169;-64
2021/06/28 02:34:09;;;;;;;18.77;11.10;;;;;;;;;;5062420;28;20013;-64
2021/06/28 02:36:34;;;;;;;17.55;11.98;;;;;;;;;;5061232;28;20480;-64
2021/06/28 02:39:00;;;;;;;16.15;11.20;;;;;;;;;;5063951;28;20020;-64
2021/06/28 02:41:25;;;;;;;14.70;11.55;;;;;;;;;;5066695;28;20024;-64
2021/06/28 02:43:51;;;;;;;13.40;10.98;;;;;;;;;;5065117;28;20029;-64
2021/06/28 02:46:17;;;;;;;15.82;11.55;;;;;;;;;;5064147;28;20535;-64
2021/06/28 02:48:42;;;;;;;18.58;11.50;;;;;;;;;;5064505;28;20488;-64
2021/06/28 02:51:08;;;;;;;16.98;11.30;;;;;;;;;;5063980;28;20029;-64
2021/06/28 02:53:33;;;;;;;15.18;10.68;;;;;;;;;;5066506;28;20036;-64
2021/06/28 02:56:12;;;;;;;15.75;11.48;;;;;;;;;;5065167;28;20047;-64
2021/06/28 02:58:38;;;;;;;14.63;11.02;;;;;;;;;;5064850;28;20085;-64
2021/06/28 03:01:03;;;;;;;17.48;11.48;;;;;;;;;;5063206;28;20112;-64
2021/06/28 03:03:28;;;;;;;14.43;11.17;;;;;;;;;;5051294;28;20035;-64
2021/06/28 03:05:53;;;;;;;15.13;10.80;;;;;;;;;;5062348;28;20372;-64
2021/06/28 03:08:18;;;;;;;16.87;12.37;;;;;;;;;;5061827;28;20643;-64
2021/06/28 03:10:43;;;;;;;18.93;12.00;;;;;;;;;;5064411;28;20307;-64
2021/06/28 03:13:09;;;;;;;15.80;11.83;;;;;;;;;;5062106;28;20275;-64
2021/06/28 03:15:35;;;;;;;17.65;12.25;;;;;;;;;;5062011;28;20298;-64
2021/06/28 03:18:00;;;;;;;17.02;12.55;;;;;;;;;;5069695;28;20491;-64
2021/06/28 03:20:25;;;;;;;23.67;13.23;;;;;;;;;;5063507;28;20025;-64
2021/06/28 03:22:50;;;;;;;18.33;11.10;;;;;;;;;;5062938;28;20266;-64
2021/06/28 03:25:16;;;;;;;16.77;11.43;;;;;;;;;;5064546;28;20055;-64
2021/06/28 03:27:42;;;;;;;15.73;12.13;;;;;;;;;;5059701;28;20362;-64
2021/06/28 03:30:08;;;;;;;17.58;11.70;;;;;;;;;;5061820;28;20107;-64
2021/06/28 03:32:34;;;;;;;18.45;12.07;;;;;;;;;;5062146;28;20085;-64
2021/06/28 03:34:59;;;;;;;17.15;11.65;;;;;;;;;;5059546;28;20029;-64
2021/06/28 03:37:24;;;;;;;18.83;12.07;;;;;;;;;;5060743;28;20017;-64
2021/06/28 03:39:50;;;;;;;17.90;12.25;;;;;;;;;;5061866;28;21010;-64
2021/06/28 03:42:15;;;;;;;18.38;10.82;;;;;;;;;;5061852;28;20036;-64
2021/06/28 03:44:40;;;;;;;20.92;11.52;;;;;;;;;;5062720;28;20061;-64
2021/06/28 03:47:06;;;;;;;16.00;12.13;;;;;;;;;;5063508;28;20081;-64
2021/06/28 03:49:31;;;;;;;15.05;10.77;;;;;;;;;;5061546;28;20029;-64
2021/06/28 03:51:56;;;;;;;17.38;11.10;;;;;;;;;;5065476;28;20024;-64
2021/06/28 03:54:21;;;;;;;16.70;11.20;;;;;;;;;;5063405;28;20016;-64
2021/06/28 03:59:14;;;;;;;16.80;11.45;;;;;;;;;;5045613;28;20048;-64
2021/06/28 04:01:39;;;;;;;14.95;10.70;;;;;;;;;;5041579;28;20072;-64
2021/06/28 04:04:04;;;;;;;15.30;11.88;;;;;;;;;;5045314;28;20371;-66
2021/06/28 04:06:30;;;;;;;17.67;11.18;;;;;;;;;;5039831;28;20506;-64
2021/06/28 04:08:55;;;;;;;17.25;11.27;;;;;;;;;;5042368;28;20048;-63
2021/06/28 04:11:20;;;;;;;15.80;11.75;;;;;;;;;;5044036;28;20384;-64
2021/06/28 04:13:46;;;;;;;16.58;11.32;;;;;;;;;;5041168;28;20492;-64
2021/06/28 04:16:11;;;;;;;17.52;11.70;;;;;;;;;;5045624;28;20032;-63
2021/06/28 04:18:36;;;;;;;19.15;11.70;;;;;;;;;;5041156;28;20052;-63
2021/06/28 04:21:02;;;;;;;17.30;11.87;;;;;;;;;;5039186;28;20037;-64
2021/06/28 04:23:27;;;;;;;15.57;11.85;;;;;;;;;;5041456;28;20277;-64
2021/06/28 04:25:52;;;;;;;16.10;10.90;;;;;;;;;;5041200;28;20401;-63
2021/06/28 04:28:18;;;;;;;14.18;10.98;;;;;;;;;;5043642;28;20283;-64
2021/06/28 04:30:43;;;;;;;13.43;10.75;;;;;;;;;;5041141;28;20033;-64
2021/06/28 04:33:08;;;;;;;17.45;10.18;;;;;;;;;;5040223;28;20127;-65
2021/06/28 04:35:33;;;;;;;15.52;10.90;;;;;;;;;;5039829;28;20021;-65
2021/06/28 04:37:59;;;;;;;14.82;10.73;;;;;;;;;;5045045;28;20516;-64
2021/06/28 04:40:26;;;;;;;16.10;10.35;;;;;;;;;;5039511;28;20032;-64
2021/06/28 04:42:51;;;;;;;13.57;10.80;;;;;;;;;;5041844;28;20017;-65
2021/06/28 04:45:17;;;;;;;16.33;12.32;;;;;;;;;;5040342;28;20021;-64
2021/06/28 04:47:43;;;;;;;15.18;10.65;;;;;;;;;;5042786;28;20123;-65
2021/06/28 04:50:09;;;;;;;18.75;11.57;;;;;;;;;;5044075;28;20099;-64
2021/06/28 04:52:34;;;;;;;16.65;10.63;;;;;;;;;;5039276;28;20048;-65
2021/06/28 04:55:00;;;;;;;13.55;10.07;;;;;;;;;;5043434;28;20013;-64
2021/06/28 04:57:26;;;;;;;15.88;10.50;;;;;;;;;;5043581;28;20036;-65
2021/06/28 04:59:51;;;;;;;13.18;10.15;;;;;;;;;;5042484;28;20036;-64
2021/06/28 05:02:16;;;;;;;14.45;10.38;;;;;;;;;;5038221;28;20037;-65
2021/06/28 05:04:41;;;;;;;13.57;9.90;;;;;;;;;;5048179;28;20416;-65
2021/06/28 05:07:07;;;;;;;12.33;10.20;;;;;;;;;;5042641;28;20481;-65
2021/06/28 05:09:32;;;;;;;16.80;10.00;;;;;;;;;;5040723;28;20288;-65
2021/06/28 05:11:57;;;;;;;11.32;9.80;;;;;;;;;;5037958;28;20025;-65
2021/06/28 05:14:24;;;;;;;14.00;10.73;;;;;;;;;;5038957;28;20485;-65
2021/06/28 05:16:49;;;;;;;13.75;9.98;;;;;;;;;;5038290;28;20021;-65
2021/06/28 05:19:14;;;;;;;13.03;10.10;;;;;;;;;;5039497;28;20393;-65
2021/06/28 05:21:40;;;;;;;13.27;10.47;;;;;;;;;;5038378;28;20413;-64
2021/06/28 05:24:05;;;;;;;15.30;10.27;;;;;;;;;;5040556;28;20287;-65
2021/06/28 05:26:30;;;;;;;15.02;10.00;;;;;;;;;;5036646;28;20793;-65
2021/06/28 05:28:55;;;;;;;18.60;10.55;;;;;;;;;;5035351;28;20074;-65
2021/06/28 05:31:20;;;;;;;16.17;11.27;;;;;;;;;;5035083;28;20469;-65
2021/06/28 05:33:46;;;;;;;16.67;10.35;;;;;;;;;;5036679;28;20345;-65
2021/06/28 05:36:11;;;;;;;17.43;9.83;;;;;;;;;;5040656;28;20059;-64
2021/06/28 05:38:36;;;;;;;26.50;11.52;;;;;;;;;;5036363;28;20275;-64
2021/06/28 05:41:01;;;;;;;13.25;8.95;;;;;;;;;;5033477;28;20032;-64
2021/06/28 05:43:27;;;;;;;15.63;10.77;;;;;;;;;;5035113;28;20029;-64
2021/06/28 05:45:52;;;;;;;18.55;12.05;;;;;;;;;;5041030;28;20114;-64
2021/06/28 05:48:17;;;;;;;14.68;10.45;;;;;;;;;;5038114;28;20093;-64
2021/06/28 05:50:42;;;;;;;12.53;9.97;;;;;;;;;;5039577;28;20025;-64
2021/06/28 05:53:07;;;;;;;13.88;9.65;;;;;;;;;;5038670;28;20793;-64
2021/06/28 05:55:33;;;;;;;13.47;10.17;;;;;;;;;;5040951;28;20017;-64
2021/06/28 05:57:58;;;;;;;18.40;10.25;;;;;;;;;;5040315;28;20654;-64
2021/06/28 06:00:23;;;;;;;13.98;10.07;;;;;;;;;;5043911;28;20094;-64
2021/06/28 06:02:49;;;;;;;18.73;11.03;;;;;;;;;;5044097;28;20021;-65
2021/06/28 06:05:14;;;;;;;13.18;9.73;;;;;;;;;;5040479;28;20750;-65
2021/06/28 06:07:39;;;;;;;14.40;10.75;;;;;;;;;;5043792;28;20100;-65
2021/06/28 06:10:05;;;;;;;17.02;11.43;;;;;;;;;;5043332;28;20057;-64
2021/06/28 06:12:30;;;;;;;13.50;10.20;;;;;;;;;;5045727;28;20108;-65
2021/06/28 06:14:56;;;;;;;12.20;9.35;;;;;;;;;;5044441;28;20116;-65
2021/06/28 06:17:21;;;;;;;13.95;10.85;;;;;;;;;;5045722;28;20036;-65
2021/06/28 06:19:46;;;;;;;14.68;9.57;;;;;;;;;;5046170;28;20096;-65
2021/06/28 06:22:11;;;;;;;13.13;10.25;;;;;;;;;;5042436;28;20023;-65
2021/06/28 06:24:37;;;;;;;13.70;11.15;;;;;;;;;;5042944;28;20028;-65
2021/06/28 06:27:03;;;;;;;15.15;10.15;;;;;;;;;;5042298;28;20035;-64
2021/06/28 06:29:29;;;;;;;14.27;10.45;;;;;;;;;;5044888;28;20496;-65
2021/06/28 06:31:54;;;;;;;13.43;9.83;;;;;;;;;;5047040;28;20063;-65
2021/06/28 06:34:19;;;;;;;14.90;10.03;;;;;;;;;;5048951;28;20275;-65
2021/06/28 06:36:44;;;;;;;13.95;9.95;;;;;;;;;;5052773;28;20267;-65
2021/06/28 06:39:09;;;;;;;13.65;9.63;;;;;;;;;;5044129;28;20017;-65
2021/06/28 06:41:35;;;;;;;13.17;9.70;;;;;;;;;;5043103;28;20029;-65
2021/06/28 06:44:00;;;;;;;12.80;10.32;;;;;;;;;;5043264;28;20271;-65
2021/06/28 06:46:25;;;;;;;13.07;10.20;;;;;;;;;;5043596;28;20051;-65
2021/06/28 06:48:50;;;;;;;15.70;9.90;;;;;;;;;;5043192;28;20382;-65
2021/06/28 06:51:17;;;;;;;13.57;8.85;;;;;;;;;;5043617;28;20655;-65
2021/06/28 06:53:43;;;;;;;17.30;8.25;;;;;;;;;;5043482;28;20029;-65
2021/06/28 06:56:08;;;;;;;13.00;9.35;;;;;;;;;;5045407;28;20027;-65
2021/06/28 06:58:33;;;;;;;13.10;8.73;;;;;;;;;;5044771;28;20682;-65
2021/06/28 07:00:59;;;;;;;12.75;9.52;;;;;;;;;;5043600;28;20303;-65
2021/06/28 07:03:24;;;;;;;15.18;9.60;;;;;;;;;;5042069;28;20086;-65
2021/06/28 07:05:49;;;;;;;13.23;9.37;;;;;;;;;;5042329;28;20029;-65
2021/06/28 07:08:15;;;;;;;14.35;9.60;;;;;;;;;;5043362;28;20272;-65
2021/06/28 07:10:41;;;;;;;14.30;10.18;;;;;;;;;;5045695;28;20024;-65
2021/06/28 07:13:06;;;;;;;17.67;10.63;;;;;;;;;;5041302;28;20028;-65
2021/06/28 07:15:32;;;;;;;14.97;9.83;;;;;;;;;;5042640;28;20049;-65
2021/06/28 07:17:57;;;;;;;12.73;9.85;;;;;;;;;;5043003;28;20687;-65
2021/06/28 07:20:22;;;;;;;13.33;10.07;;;;;;;;;;5043322;28;20026;-65
2021/06/28 07:22:48;;;;;;;13.07;10.10;;;;;;;;;;5043642;28;20272;-65
2021/06/28 07:25:14;;;;;;;13.52;10.15;;;;;;;;;;5046245;28;20029;-65
2021/06/28 07:27:40;;;;;;;20.30;10.40;;;;;;;;;;5055356;28;20029;-65
2021/06/28 07:30:08;;;;;;;14.20;10.40;;;;;;;;;;5056615;28;20047;-65
2021/06/28 07:32:33;;;;;;;14.05;10.43;;;;;;;;;;5047577;28;20033;-65
2021/06/28 07:34:58;;;;;;;15.20;11.00;;;;;;;;;;5051666;28;20393;-65
2021/06/28 07:37:23;;;;;;;17.30;12.63;;;;;;;;;;5053305;28;20028;-64
2021/06/28 07:39:48;;;;;;;17.45;10.70;;;;;;;;;;5066142;28;20413;-65
2021/06/28 07:42:14;;;;;;;15.48;10.02;;;;;;;;;;5052337;28;20057;-64
2021/06/28 07:44:39;;;;;;;13.85;9.50;;;;;;;;;;5051551;28;20032;-64
2021/06/28 07:47:04;;;;;;;11.30;9.35;;;;;;;;;;5051302;28;20036;-64
2021/06/28 07:49:29;;;;;;;13.37;9.57;;;;;;;;;;5052009;28;20031;-65
2021/06/28 07:51:55;;;;;;;10.47;9.10;;;;;;;;;;5050697;28;20279;-65
2021/06/28 07:54:22;;;;;;;10.55;8.45;;;;;;;;;;5050499;28;20255;-65
2021/06/28 07:56:47;;;;;;;15.73;9.60;;;;;;;;;;5045922;28;20031;-65
2021/06/28 07:59:12;;;;;;;12.63;8.95;;;;;;;;;;5051627;28;20108;-65
2021/06/28 08:01:38;;;;;;;13.30;8.87;;;;;;;;;;5043669;28;20028;-64
2021/06/28 08:04:03;;;;;;;10.07;8.60;;;;;;;;;;5057530;28;20264;-64
2021/06/28 08:06:28;;;;;;;9.80;8.05;;;;;;;;;;5051361;28;20701;-65
2021/06/28 08:08:54;;;;;;;9.30;7.97;;;;;;;;;;5050728;28;20707;-65
2021/06/28 08:11:20;;;;;;;14.20;7.68;;;;;;;;;;5049416;28;20794;-65
2021/06/28 08:13:47;;;;;;;12.35;8.07;;;;;;;;;;5051191;28;20029;-64
2021/06/28 08:16:16;;;;;;;11.30;8.27;;;;;;;;;;5047607;28;20508;-65
2021/06/28 08:18:43;;;;;;;12.27;7.83;;;;;;;;;;5050719;28;20043;-65
2021/06/28 08:21:08;;;;;;;10.55;7.05;;;;;;;;;;5050996;28;20035;-65
2021/06/28 08:23:34;;;;;;;10.73;7.03;;;;;;;;;;5050519;28;20100;-65
2021/06/28 08:25:59;;;;;;;8.00;7.20;;;;;;;;;;5049972;28;20029;-65
2021/06/28 08:28:24;;;;;;;9.77;6.90;;;;;;;;;;5051386;28;20236;-65
2021/06/28 08:30:49;;;;;;;9.27;7.40;;;;;;;;;;5050649;28;20044;-65
2021/06/28 08:33:14;;;;;;;14.93;7.65;;;;;;;;;;5051107;28;20479;-64
2021/06/28 08:35:41;;;;;;;9.00;7.38;;;;;;;;;;5050962;28;20020;-65
2021/06/28 08:38:07;;;;;;;9.10;7.07;;;;;;;;;;5057718;28;20028;-65
2021/06/28 08:40:32;;;;;;;16.45;6.95;;;;;;;;;;5040252;28;20021;-64
2021/06/28 08:42:57;;;;;;;9.23;7.22;;;;;;;;;;5051042;28;20381;-64
2021/06/28 08:45:24;;;;;;;10.15;8.18;;;;;;;;;;5036435;28;20041;-65
2021/06/28 08:47:49;;;;;;;17.88;8.32;;;;;;;;;;5050068;28;20040;-64
2021/06/28 08:50:14;;;;;;;17.02;8.38;;;;;;;;;;5060778;28;20005;-64
2021/06/28 08:52:42;;;;;;;10.75;7.07;;;;;;;;;;5050339;28;20043;-65
2021/06/28 08:55:08;;;;;;;9.00;6.22;;;;;;;;;;5057376;28;20020;-65
2021/06/28 08:57:33;;;;;;;10.82;7.68;;;;;;;;;;5051021;28;20463;-65
2021/06/28 08:59:58;;;;;;;9.67;6.33;;;;;;;;;;5047151;28;20069;-65
2021/06/28 09:02:23;;;;;;;9.80;6.88;;;;;;;;;;5050680;28;20264;-65
2021/06/28 09:05:10;;;;;;;8.37;6.53;;;;;;;;;;5049921;28;20029;-65
2021/06/28 09:07:35;;;;;;;10.32;6.97;;;;;;;;;;5050459;28;20021;-65
2021/06/28 09:10:01;;;;;;;8.93;6.50;;;;;;;;;;5050225;28;20032;-65
2021/06/28 09:12:26;;;;;;;9.13;7.30;;;;;;;;;;5049814;28;20047;-65
2021/06/28 09:14:55;;;;;;;11.10;7.30;;;;;;;;;;5049354;28;20767;-65
2021/06/28 09:17:26;;;;;;;15.57;7.38;;;;;;;;;;5043132;28;20299;-64
2021/06/28 09:20:11;;;;;;;11.57;7.35;;;;;;;;;;5049170;28;20158;-65
2021/06/28 09:22:36;;;;;;;9.10;7.53;;;;;;;;;;5049532;28;20420;-65
2021/06/28 09:25:02;;;;;;;9.80;5.68;;;;;;;;;;5050128;28;20021;-65
2021/06/28 09:27:30;;;;;;;9.65;6.80;;;;;;;;;;5049933;28;20029;-65
2021/06/28 09:29:57;;;;;;;9.82;5.90;;;;;;;;;;5049834;28;20032;-65
2021/06/28 09:32:23;;;;;;;9.52;5.38;;;;;;;;;;5049010;28;20025;-65
2021/06/28 09:34:49;;;;;;;6.28;5.30;;;;;;;;;;5049514;28;20487;-65
2021/06/28 09:37:18;;;;;;;6.65;5.47;;;;;;;;;;5050081;28;20033;-65
2021/06/28 09:39:47;;;;;;;11.47;6.33;;;;;;;;;;5049896;28;20017;-65
2021/06/28 09:42:15;;;;;;;12.57;6.00;;;;;;;;;;5049235;28;20275;-65
2021/06/28 09:44:48;;;;;;;9.90;6.45;;;;;;;;;;5049738;28;20052;-65
2021/06/28 09:47:14;;;;;;;10.15;5.75;;;;;;;;;;5049130;28;20074;-65
2021/06/28 09:49:59;;;;;;;6.57;5.22;;;;;;;;;;5044064;28;20033;-64
2021/06/28 09:52:28;;;;;;;8.98;6.90;;;;;;;;;;5049566;28;20492;-65
2021/06/28 09:54:53;;;;;;;8.02;5.65;;;;;;;;;;5049441;28;20025;-65
2021/06/28 09:59:46;;;;;;;6.88;5.47;;;;;;;;;;5028092;28;20461;-67
2021/06/28 10:02:30;;;;;;;11.60;6.63;;;;;;;;;;5029854;28;20026;-67
2021/06/28 10:04:57;;;;;;;11.05;5.78;;;;;;;;;;5031241;28;20330;-67
2021/06/28 10:07:36;;;;;;;7.65;6.65;;;;;;;;;;5029765;28;20445;-67
2021/06/28 10:10:04;;;;;;;7.78;6.97;;;;;;;;;;5029540;28;20045;-67
2021/06/28 10:12:29;;;;;;;6.80;5.80;;;;;;;;;;5029993;28;20040;-67
2021/06/28 10:14:55;;;;;;;7.17;6.47;;;;;;;;;;5029057;28;20017;-67
2021/06/28 10:17:20;;;;;;;7.25;5.88;;;;;;;;;;5029086;28;20270;-67
2021/06/28 10:19:45;;;;;;;6.95;6.05;;;;;;;;;;5028937;28;20469;-67
2021/06/28 10:22:11;;;;;;;9.13;5.68;;;;;;;;;;5029664;28;20021;-67
2021/06/28 10:24:36;;;;;;;10.15;7.03;;;;;;;;;;5029219;28;20021;-67
2021/06/28 10:27:02;;;;;;;7.25;5.78;;;;;;;;;;5029869;28;20044;-67
2021/06/28 10:29:28;;;;;;;7.05;6.22;;;;;;;;;;5029337;28;20374;-67
2021/06/28 10:31:53;;;;;;;8.02;5.88;;;;;;;;;;5028840;28;20361;-67
2021/06/28 10:34:18;;;;;;;6.80;5.47;;;;;;;;;;5024828;28;20025;-67
2021/06/28 10:36:45;;;;;;;6.03;4.37;;;;;;;;;;5028780;28;20276;-67
2021/06/28 10:39:10;;;;;;;6.95;5.97;;;;;;;;;;5028977;28;20314;-67
2021/06/28 10:41:40;;;;;;;9.20;5.43;;;;;;;;;;5028943;28;20107;-67
2021/06/28 10:44:06;;;;;;;8.57;5.85;;;;;;;;;;5028552;28;20017;-67
2021/06/28 10:46:33;;;;;;;8.10;5.50;;;;;;;;;;5030606;28;20037;-67
2021/06/28 10:48:58;;;;;;;8.10;5.15;;;;;;;;;;5032927;28;20040;-67
2021/06/28 10:51:38;;;;;;;5.78;4.80;;;;;;;;;;5032749;28;20021;-67
2021/06/28 10:54:04;;;;;;;6.22;5.10;;;;;;;;;;5031590;28;20017;-67
2021/06/28 10:56:30;;;;;;;8.18;6.03;;;;;;;;;;5032945;28;20156;-67
2021/06/28 10:59:03;;;;;;;7.78;5.18;;;;;;;;;;5032842;28;20112;-67
2021/06/28 11:01:35;;;;;;;11.63;5.88;;;;;;;;;;5033177;28;20025;-67
2021/06/28 11:04:07;;;;;;;9.27;6.32;;;;;;;;;;5032809;28;20414;-67
2021/06/28 11:06:33;;;;;;;8.20;5.65;;;;;;;;;;5032244;28;20064;-67
2021/06/28 11:09:04;;;;;;;7.38;6.45;;;;;;;;;;5032691;28;20080;-67
2021/06/28 11:11:47;;;;;;;14.65;7.85;;;;;;;;;;5032351;28;20107;-67
2021/06/28 11:14:18;;;;;;;11.88;8.55;;;;;;;;;;5039425;28;20600;-67
2021/06/28 11:17:09;;;;;;;18.63;11.40;;;;;;;;;;5031843;28;20029;-67
2021/06/28 11:19:51;;;;;;;19.55;9.60;;;;;;;;;;5031775;28;20022;-67
2021/06/28 11:22:30;;;;;;;22.98;8.40;;;;;;;;;;5032145;28;20432;-67
2021/06/28 11:25:07;;;;;;;13.43;9.57;;;;;;;;;;5031885;28;20417;-66
2021/06/28 11:27:33;;;;;;;20.55;11.65;;;;;;;;;;5031938;28;20044;-66
2021/06/28 11:29:59;;;;;;;15.93;10.80;;;;;;;;;;5032195;28;20490;-66
2021/06/28 11:32:25;;;;;;;12.35;8.73;;;;;;;;;;5032342;28;20079;-66
2021/06/28 11:34:51;;;;;;;11.27;8.35;;;;;;;;;;5032092;28;20021;-66
2021/06/28 11:37:16;;;;;;;10.63;7.47;;;;;;;;;;5031586;28;20536;-66
2021/06/28 11:39:55;;;;;;;10.00;7.35;;;;;;;;;;5031266;28;20053;-66
2021/06/28 11:42:23;;;;;;;33.38;12.80;;;;;;;;;;5031142;28;20104;-66
2021/06/28 11:44:59;;;;;;;12.23;8.65;;;;;;;;;;5031402;28;20536;-66
2021/06/28 11:47:43;;;;;;;18.13;8.13;;;;;;;;;;5031986;28;20029;-66
2021/06/28 11:50:23;;;;;;;11.95;8.10;;;;;;;;;;5031401;28;20010;-66
2021/06/28 11:52:48;;;;;;;;;;;;;;;;;;5031968;28;20501;-66
2021/06/28 11:55:13;;;;;;;11.55;8.27;;;;;;;;;;5031526;28;20380;-66
2021/06/28 11:57:38;;;;;;;11.90;7.18;;;;;;;;;;5030209;28;20021;-66
2021/06/28 12:00:07;;;;;;;8.03;6.47;;;;;;;;;;5031036;28;20432;-66
2021/06/28 12:02:32;;;;;;;8.27;6.05;;;;;;;;;;5031736;28;20272;-66
2021/06/28 12:05:00;;;;;;;7.50;5.60;;;;;;;;;;5023142;28;20501;-66
2021/06/28 12:07:26;;;;;;;7.82;6.10;;;;;;;;;;5027684;28;20760;-66
2021/06/28 12:09:51;;;;;;;8.63;6.75;;;;;;;;;;5030529;28;20052;-66
2021/06/28 12:12:16;;;;;;;9.47;6.13;;;;;;;;;;5030989;28;20474;-66
2021/06/28 12:14:49;;;;;;;8.43;5.72;;;;;;;;;;5031688;28;20009;-66
2021/06/28 12:17:16;;;;;;;12.02;6.43;;;;;;;;;;5039706;28;20497;-66
2021/06/28 12:19:42;;;;;;;7.57;6.00;;;;;;;;;;5031552;28;20394;-66
2021/06/28 12:22:09;;;;;;;12.32;7.13;;;;;;;;;;5030972;28;20072;-66
2021/06/28 12:24:34;;;;;;;7.65;6.72;;;;;;;;;;5031199;28;20025;-66
2021/06/28 12:26:59;;;;;;;12.77;7.73;;;;;;;;;;5031346;28;20029;-66
2021/06/28 12:29:35;;;;;;;10.43;7.45;;;;;;;;;;5031061;28;20260;-66
2021/06/28 12:32:02;;;;;;;8.27;6.50;;;;;;;;;;5031000;28;20029;-66
2021/06/28 12:34:28;;;;;;;8.15;6.82;;;;;;;;;;5031409;28;20420;-66
2021/06/28 12:36:53;;;;;;;9.07;7.47;;;;;;;;;;5031279;28;20025;-66
2021/06/28 12:39:25;;;;;;;11.10;7.20;;;;;;;;;;5030866;28;20018;-66
2021/06/28 12:41:51;;;;;;;8.23;6.88;;;;;;;;;;5030838;28;20257;-66
2021/06/28 12:44:16;;;;;;;10.60;6.90;;;;;;;;;;5031377;28;20032;-66
2021/06/28 12:46:43;;;;;;;13.55;7.53;;;;;;;;;;5030182;28;20103;-66
2021/06/28 12:49:08;;;;;;;12.00;7.32;;;;;;;;;;5030814;28;20643;-66
2021/06/28 12:51:33;;;;;;;12.47;7.47;;;;;;;;;;5030558;28;20036;-66
2021/06/28 12:53:58;;;;;;;12.17;6.97;;;;;;;;;;5030684;28;20288;-66
2021/06/28 12:56:30;;;;;;;13.10;7.83;;;;;;;;;;5029516;28;20273;-66
2021/06/28 12:59:37;;;;;;;14.40;8.27;;;;;;;;;;5029344;28;20045;-66
2021/06/28 13:02:03;;;;;;;12.18;7.75;;;;;;;;;;5015587;28;20347;-66
2021/06/28 13:04:28;;;;;;;13.18;9.52;;;;;;;;;;5029906;28;20094;-66
2021/06/28 13:06:54;;;;;;;14.87;8.47;;;;;;;;;;5029786;28;20470;-66
2021/06/28 13:09:20;;;;;;;15.23;8.70;;;;;;;;;;5029754;28;20598;-66
2021/06/28 13:11:49;;;;;;;10.98;7.95;;;;;;;;;;5029910;28;20072;-66
2021/06/28 13:14:25;;;;;;;9.75;7.97;;;;;;;;;;5040673;28;20075;-66
2021/06/28 13:16:51;;;;;;;15.15;8.73;;;;;;;;;;5030340;28;20028;-66
2021/06/28 13:19:18;;;;;;;12.70;8.18;;;;;;;;;;5029858;28;20421;-66
2021/06/28 13:21:54;;;;;;;13.55;8.50;;;;;;;;;;5029734;28;20092;-66
2021/06/28 13:24:21;;;;;;;11.32;8.40;;;;;;;;;;5030216;28;20441;-66
2021/06/28 13:26:47;;;;;;;12.95;7.63;;;;;;;;;;5029720;28;20083;-66
2021/06/28 13:29:14;;;;;;;10.77;8.00;;;;;;;;;;5030378;28;20021;-66
2021/06/28 13:31:50;;;;;;;14.52;8.65;;;;;;;;;;5029811;28;20028;-66
2021/06/28 13:34:17;;;;;;;12.15;9.80;;;;;;;;;;5030206;28;20028;-66
2021/06/28 13:37:18;;;;;;;9.20;7.75;;;;;;;;;;5029715;28;20029;-66
2021/06/28 13:39:47;;;;;;;14.43;7.78;;;;;;;;;;4950006;29;20027;-66
2021/06/28 13:42:18;;;;;;;13.20;7.30;;;;;;;;;;5012680;28;20113;-66
2021/06/28 13:45:00;;;;;;;10.43;6.47;;;;;;;;;;5018127;28;20021;-66
2021/06/28 13:47:26;;;;;;;6.82;5.28;;;;;;;;;;5025482;28;20028;-66
2021/06/28 13:49:51;;;;;;;9.20;5.53;;;;;;;;;;5030457;28;20040;-66
2021/06/28 13:52:17;;;;;;;8.85;5.05;;;;;;;;;;5029960;28;20120;-66
2021/06/28 13:54:42;;;;;;;8.20;5.43;;;;;;;;;;5030446;28;20508;-66
2021/06/28 13:57:07;;;;;;;7.30;5.72;;;;;;;;;;5029592;28;20025;-66
2021/06/28 13:59:33;;;;;;;5.85;5.15;;;;;;;;;;5029554;28;20075;-66
2021/06/28 14:01:58;;;;;;;11.88;5.55;;;;;;;;;;5029982;28;20105;-66
2021/06/28 14:04:23;;;;;;;7.53;5.68;;;;;;;;;;5029944;28;20022;-66
2021/06/28 14:06:48;;;;;;;6.90;5.35;;;;;;;;;;5029324;28;20075;-66
2021/06/28 14:09:14;;;;;;;6.77;4.47;;;;;;;;;;5029618;28;20083;-69
2021/06/28 14:11:39;;;;;;;8.48;4.55;;;;;;;;;;5029437;28;20029;-65
2021/06/28 14:14:04;;;;;;;6.47;4.55;;;;;;;;;;5029498;28;20025;-65
2021/06/28 14:16:30;;;;;;;8.20;4.28;;;;;;;;;;5028534;28;20087;-65
2021/06/28 14:18:55;;;;;;;7.93;4.43;;;;;;;;;;5029781;28;20101;-65
2021/06/28 14:21:20;;;;;;;6.53;3.80;;;;;;;;;;5030645;28;20021;-65
2021/06/28 14:23:45;;;;;;;5.38;3.72;;;;;;;;;;5033841;28;20026;-65
2021/06/28 14:26:10;;;;;;;7.43;3.63;;;;;;;;;;5033691;28;20072;-65
2021/06/28 14:28:36;;;;;;;8.87;3.63;;;;;;;;;;5033623;28;20768;-65